sensor_id;sensor_type;location;lat;lon;timestamp;P1;durP1;ratioP1;P2;durP2;ratioP2
10535;SDS011;5316;49.538;8.352;2023-03-01T00:00:47;10.50;;;8.47;;
10535;SDS011;5316;49.538;8.352;2023-03-01T01:36:21;12.23;;;9.90;;
10535;SDS011;5316;49.538;8.352;2023-03-01T01:38:49;13.80;;;10.00;;
10535;SDS011;5316;49.538;8.352;2023-03-01T01:41:17;10.40;;;9.00;;
10535;SDS011;5316;49.538;8.352;2023-03-01T01:43:48;12.33;;;10.00;;
10535;SDS011;5316;49.538;8.352;2023-03-01T01:46:32;12.17;;;9.53;;
10535;SDS011;5316;49.538;8.352;2023-03-01T01:49:01;13.77;;;10.50;;
10535;SDS011;5316;49.538;8.352;2023-03-01T01:51:35;12.17;;;9.67;;
10535;SDS011;5316;49.538;8.352;2023-03-01T01:54:09;11.00;;;9.17;;
10535;SDS011;5316;49.538;8.352;2023-03-01T01:56:38;14.47;;;10.07;;
10535;SDS011;5316;49.538;8.352;2023-03-01T01:59:13;12.43;;;10.40;;
10535;SDS011;5316;49.538;8.352;2023-03-01T02:01:41;13.17;;;10.20;;
10535;SDS011;5316;49.538;8.352;2023-03-01T02:04:09;12.73;;;10.63;;
10535;SDS011;5316;49.538;8.352;2023-03-01T02:06:38;13.63;;;10.83;;
10535;SDS011;5316;49.538;8.352;2023-03-01T02:09:12;14.73;;;11.00;;
10535;SDS011;5316;49.538;8.352;2023-03-01T02:11:41;13.07;;;11.00;;
10535;SDS011;5316;49.538;8.352;2023-03-01T02:14:09;15.27;;;10.63;;
10535;SDS011;5316;49.538;8.352;2023-03-01T02:16:37;13.77;;;10.33;;
10535;SDS011;5316;49.538;8.352;2023-03-01T02:19:04;16.53;;;10.30;;
10535;SDS011;5316;49.538;8.352;2023-03-01T02:21:36;13.50;;;10.50;;
10535;SDS011;5316;49.538;8.352;2023-03-01T02:24:15;15.37;;;11.07;;
10535;SDS011;5316;49.538;8.352;2023-03-01T02:26:52;16.70;;;11.80;;
10535;SDS011;5316;49.538;8.352;2023-03-01T02:29:23;15.10;;;11.27;;
10535;SDS011;5316;49.538;8.352;2023-03-01T02:31:51;14.70;;;10.93;;
10535;SDS011;5316;49.538;8.352;2023-03-01T02:34:22;15.53;;;10.97;;
10535;SDS011;5316;49.538;8.352;2023-03-01T02:36:52;16.80;;;11.30;;
10535;SDS011;5316;49.538;8.352;2023-03-01T04:44:24;17.67;;;12.90;;
10535;SDS011;5316;49.538;8.352;2023-03-01T04:46:51;18.80;;;13.93;;
10535;SDS011;5316;49.538;8.352;2023-03-01T04:49:18;21.03;;;14.33;;
10535;SDS011;5316;49.538;8.352;2023-03-01T04:51:44;19.07;;;13.43;;
10535;SDS011;5316;49.538;8.352;2023-03-01T04:54:11;20.03;;;15.70;;
10535;SDS011;5316;49.538;8.352;2023-03-01T04:56:38;19.20;;;12.87;;
10535;SDS011;5316;49.538;8.352;2023-03-01T04:59:05;16.17;;;12.87;;
10535;SDS011;5316;49.538;8.352;2023-03-01T05:01:34;16.33;;;12.47;;
10535;SDS011;5316;49.538;8.352;2023-03-01T05:04:02;22.97;;;15.63;;
10535;SDS011;5316;49.538;8.352;2023-03-01T05:06:30;16.97;;;12.90;;
10535;SDS011;5316;49.538;8.352;2023-03-01T05:08:57;18.40;;;13.47;;
10535;SDS011;5316;49.538;8.352;2023-03-01T05:11:25;28.83;;;18.47;;
10535;SDS011;5316;49.538;8.352;2023-03-01T05:13:53;16.13;;;12.90;;
10535;SDS011;5316;49.538;8.352;2023-03-01T05:16:20;17.20;;;12.43;;
10535;SDS011;5316;49.538;8.352;2023-03-01T05:18:49;14.83;;;12.17;;
10535;SDS011;5316;49.538;8.352;2023-03-01T05:21:16;17.27;;;12.67;;
10535;SDS011;5316;49.538;8.352;2023-03-01T05:23:43;17.53;;;12.50;;
10535;SDS011;5316;49.538;8.352;2023-03-01T05:26:11;16.93;;;12.97;;
10535;SDS011;5316;49.538;8.352;2023-03-01T05:28:39;16.57;;;12.07;;
10535;SDS011;5316;49.538;8.352;2023-03-01T05:31:06;16.43;;;11.87;;
10535;SDS011;5316;49.538;8.352;2023-03-01T05:33:35;15.77;;;12.93;;
10535;SDS011;5316;49.538;8.352;2023-03-01T05:36:03;16.90;;;13.40;;
10535;SDS011;5316;49.538;8.352;2023-03-01T05:38:31;17.07;;;12.40;;
10535;SDS011;5316;49.538;8.352;2023-03-01T05:40:57;16.13;;;12.87;;
10535;SDS011;5316;49.538;8.352;2023-03-01T05:43:24;15.47;;;12.67;;
10535;SDS011;5316;49.538;8.352;2023-03-01T05:45:51;15.93;;;11.90;;
10535;SDS011;5316;49.538;8.352;2023-03-01T05:48:18;15.77;;;12.80;;
10535;SDS011;5316;49.538;8.352;2023-03-01T05:50:45;16.60;;;12.53;;
10535;SDS011;5316;49.538;8.352;2023-03-01T05:53:14;19.17;;;12.73;;
10535;SDS011;5316;49.538;8.352;2023-03-01T05:55:43;15.77;;;12.13;;
10535;SDS011;5316;49.538;8.352;2023-03-01T05:58:12;17.43;;;12.67;;
10535;SDS011;5316;49.538;8.352;2023-03-01T06:00:40;17.43;;;12.10;;
10535;SDS011;5316;49.538;8.352;2023-03-01T06:03:09;16.77;;;12.83;;
10535;SDS011;5316;49.538;8.352;2023-03-01T06:05:37;15.43;;;12.47;;
10535;SDS011;5316;49.538;8.352;2023-03-01T06:08:04;18.20;;;13.50;;
10535;SDS011;5316;49.538;8.352;2023-03-01T06:10:32;23.87;;;15.93;;
10535;SDS011;5316;49.538;8.352;2023-03-01T06:12:59;17.83;;;13.20;;
10535;SDS011;5316;49.538;8.352;2023-03-01T06:15:27;17.80;;;13.70;;
10535;SDS011;5316;49.538;8.352;2023-03-01T06:17:54;17.37;;;13.70;;
10535;SDS011;5316;49.538;8.352;2023-03-01T06:20:23;18.37;;;13.63;;
10535;SDS011;5316;49.538;8.352;2023-03-01T06:22:50;18.50;;;13.37;;
10535;SDS011;5316;49.538;8.352;2023-03-01T06:25:19;17.67;;;13.33;;
10535;SDS011;5316;49.538;8.352;2023-03-01T06:27:49;18.33;;;13.07;;
10535;SDS011;5316;49.538;8.352;2023-03-01T06:30:17;16.10;;;13.07;;
10535;SDS011;5316;49.538;8.352;2023-03-01T06:32:46;19.17;;;13.03;;
10535;SDS011;5316;49.538;8.352;2023-03-01T06:35:14;17.27;;;12.93;;
10535;SDS011;5316;49.538;8.352;2023-03-01T06:37:43;18.60;;;13.07;;
10535;SDS011;5316;49.538;8.352;2023-03-01T06:40:11;18.87;;;13.23;;
10535;SDS011;5316;49.538;8.352;2023-03-01T06:42:39;18.17;;;13.83;;
10535;SDS011;5316;49.538;8.352;2023-03-01T06:45:09;35.20;;;15.37;;
10535;SDS011;5316;49.538;8.352;2023-03-01T06:47:36;18.80;;;14.00;;
10535;SDS011;5316;49.538;8.352;2023-03-01T06:50:04;17.07;;;12.63;;
10535;SDS011;5316;49.538;8.352;2023-03-01T06:52:31;17.73;;;13.40;;
10535;SDS011;5316;49.538;8.352;2023-03-01T06:54:59;25.87;;;15.23;;
10535;SDS011;5316;49.538;8.352;2023-03-01T06:57:26;28.70;;;14.80;;
10535;SDS011;5316;49.538;8.352;2023-03-01T06:59:53;24.27;;;15.00;;
10535;SDS011;5316;49.538;8.352;2023-03-01T07:02:21;19.67;;;14.00;;
10535;SDS011;5316;49.538;8.352;2023-03-01T07:04:48;17.37;;;13.73;;
10535;SDS011;5316;49.538;8.352;2023-03-01T07:07:16;20.33;;;13.67;;
10535;SDS011;5316;49.538;8.352;2023-03-01T07:09:43;20.67;;;13.73;;
10535;SDS011;5316;49.538;8.352;2023-03-01T07:12:10;16.47;;;12.53;;
10535;SDS011;5316;49.538;8.352;2023-03-01T07:14:37;16.17;;;12.60;;
10535;SDS011;5316;49.538;8.352;2023-03-01T07:17:04;17.33;;;12.67;;
10535;SDS011;5316;49.538;8.352;2023-03-01T07:19:32;18.33;;;13.33;;
10535;SDS011;5316;49.538;8.352;2023-03-01T07:22:02;16.60;;;12.60;;
10535;SDS011;5316;49.538;8.352;2023-03-01T07:24:32;17.90;;;12.87;;
10535;SDS011;5316;49.538;8.352;2023-03-01T07:26:59;15.43;;;12.30;;
10535;SDS011;5316;49.538;8.352;2023-03-01T07:29:26;16.17;;;12.97;;
10535;SDS011;5316;49.538;8.352;2023-03-01T07:31:53;17.03;;;13.10;;
10535;SDS011;5316;49.538;8.352;2023-03-01T07:34:20;19.30;;;13.07;;
10535;SDS011;5316;49.538;8.352;2023-03-01T07:36:48;16.30;;;12.77;;
10535;SDS011;5316;49.538;8.352;2023-03-01T07:39:15;18.87;;;13.97;;
10535;SDS011;5316;49.538;8.352;2023-03-01T07:41:42;23.63;;;17.43;;
10535;SDS011;5316;49.538;8.352;2023-03-01T07:44:09;18.57;;;14.37;;
10535;SDS011;5316;49.538;8.352;2023-03-01T07:46:36;19.23;;;14.40;;
10535;SDS011;5316;49.538;8.352;2023-03-01T07:49:03;17.53;;;13.10;;
10535;SDS011;5316;49.538;8.352;2023-03-01T07:51:30;15.90;;;13.30;;
10535;SDS011;5316;49.538;8.352;2023-03-01T07:53:58;17.23;;;12.80;;
10535;SDS011;5316;49.538;8.352;2023-03-01T07:56:25;17.97;;;13.90;;
10535;SDS011;5316;49.538;8.352;2023-03-01T07:58:52;18.10;;;13.30;;
10535;SDS011;5316;49.538;8.352;2023-03-01T08:01:20;18.20;;;12.70;;
10535;SDS011;5316;49.538;8.352;2023-03-01T08:03:48;15.97;;;12.60;;
10535;SDS011;5316;49.538;8.352;2023-03-01T08:06:16;16.77;;;12.97;;
10535;SDS011;5316;49.538;8.352;2023-03-01T08:08:43;17.00;;;13.77;;
10535;SDS011;5316;49.538;8.352;2023-03-01T08:11:13;16.07;;;13.30;;
10535;SDS011;5316;49.538;8.352;2023-03-01T08:13:41;18.83;;;13.57;;
10535;SDS011;5316;49.538;8.352;2023-03-01T08:16:09;18.87;;;13.13;;
10535;SDS011;5316;49.538;8.352;2023-03-01T08:18:37;17.00;;;12.57;;
10535;SDS011;5316;49.538;8.352;2023-03-01T08:21:05;17.33;;;12.90;;
10535;SDS011;5316;49.538;8.352;2023-03-01T08:23:33;15.90;;;13.53;;
10535;SDS011;5316;49.538;8.352;2023-03-01T08:26:04;23.33;;;12.77;;
10535;SDS011;5316;49.538;8.352;2023-03-01T08:28:34;18.50;;;13.83;;
10535;SDS011;5316;49.538;8.352;2023-03-01T08:31:01;17.97;;;13.30;;
10535;SDS011;5316;49.538;8.352;2023-03-01T08:33:28;19.17;;;13.77;;
10535;SDS011;5316;49.538;8.352;2023-03-01T08:36:02;16.90;;;13.70;;
10535;SDS011;5316;49.538;8.352;2023-03-01T08:38:32;18.53;;;13.87;;
10535;SDS011;5316;49.538;8.352;2023-03-01T08:40:59;16.87;;;13.30;;
10535;SDS011;5316;49.538;8.352;2023-03-01T08:43:26;19.00;;;14.03;;
10535;SDS011;5316;49.538;8.352;2023-03-01T08:45:55;22.07;;;14.93;;
10535;SDS011;5316;49.538;8.352;2023-03-01T08:48:21;21.93;;;13.93;;
10535;SDS011;5316;49.538;8.352;2023-03-01T08:50:48;20.90;;;13.10;;
10535;SDS011;5316;49.538;8.352;2023-03-01T08:53:15;17.83;;;13.93;;
10535;SDS011;5316;49.538;8.352;2023-03-01T08:55:42;17.40;;;13.73;;
10535;SDS011;5316;49.538;8.352;2023-03-01T08:58:09;19.00;;;14.40;;
10535;SDS011;5316;49.538;8.352;2023-03-01T09:00:36;17.97;;;13.33;;
10535;SDS011;5316;49.538;8.352;2023-03-01T09:03:05;19.87;;;13.87;;
10535;SDS011;5316;49.538;8.352;2023-03-01T09:05:32;17.57;;;14.23;;
10535;SDS011;5316;49.538;8.352;2023-03-01T09:08:01;16.07;;;12.87;;
10535;SDS011;5316;49.538;8.352;2023-03-01T09:10:30;19.47;;;13.93;;
10535;SDS011;5316;49.538;8.352;2023-03-01T09:12:57;19.97;;;14.03;;
10535;SDS011;5316;49.538;8.352;2023-03-01T09:15:24;19.30;;;14.27;;
10535;SDS011;5316;49.538;8.352;2023-03-01T09:17:51;18.30;;;13.40;;
10535;SDS011;5316;49.538;8.352;2023-03-01T09:20:19;17.50;;;13.47;;
10535;SDS011;5316;49.538;8.352;2023-03-01T09:22:46;16.47;;;13.30;;
10535;SDS011;5316;49.538;8.352;2023-03-01T09:25:13;16.83;;;13.77;;
10535;SDS011;5316;49.538;8.352;2023-03-01T09:27:40;19.00;;;14.20;;
10535;SDS011;5316;49.538;8.352;2023-03-01T09:30:07;20.53;;;14.33;;
10535;SDS011;5316;49.538;8.352;2023-03-01T09:32:35;17.77;;;14.07;;
10535;SDS011;5316;49.538;8.352;2023-03-01T09:35:02;17.77;;;14.47;;
10535;SDS011;5316;49.538;8.352;2023-03-01T09:37:33;18.67;;;14.07;;
10535;SDS011;5316;49.538;8.352;2023-03-01T09:40:02;18.53;;;14.97;;
10535;SDS011;5316;49.538;8.352;2023-03-01T09:42:32;16.03;;;13.27;;
10535;SDS011;5316;49.538;8.352;2023-03-01T09:45:01;20.10;;;14.70;;
10535;SDS011;5316;49.538;8.352;2023-03-01T09:47:31;19.80;;;14.77;;
10535;SDS011;5316;49.538;8.352;2023-03-01T09:50:01;15.90;;;13.23;;
10535;SDS011;5316;49.538;8.352;2023-03-01T09:52:36;18.73;;;13.87;;
10535;SDS011;5316;49.538;8.352;2023-03-01T09:55:08;18.57;;;14.80;;
10535;SDS011;5316;49.538;8.352;2023-03-01T09:57:38;20.67;;;15.10;;
10535;SDS011;5316;49.538;8.352;2023-03-01T10:00:14;19.80;;;14.90;;
10535;SDS011;5316;49.538;8.352;2023-03-01T10:02:47;19.23;;;14.73;;
10535;SDS011;5316;49.538;8.352;2023-03-01T10:08:30;17.20;;;14.67;;
10535;SDS011;5316;49.538;8.352;2023-03-01T10:11:04;19.23;;;14.43;;
10535;SDS011;5316;49.538;8.352;2023-03-01T10:13:40;15.93;;;13.57;;
10535;SDS011;5316;49.538;8.352;2023-03-01T10:16:14;23.70;;;14.93;;
10535;SDS011;5316;49.538;8.352;2023-03-01T10:18:46;19.37;;;15.00;;
10535;SDS011;5316;49.538;8.352;2023-03-01T10:21:19;24.17;;;17.10;;
10535;SDS011;5316;49.538;8.352;2023-03-01T10:23:48;20.70;;;14.20;;
10535;SDS011;5316;49.538;8.352;2023-03-01T10:26:23;24.57;;;15.13;;
10535;SDS011;5316;49.538;8.352;2023-03-01T10:29:05;19.63;;;15.13;;
10535;SDS011;5316;49.538;8.352;2023-03-01T10:31:37;18.67;;;14.40;;
10535;SDS011;5316;49.538;8.352;2023-03-01T10:34:09;15.87;;;13.20;;
10535;SDS011;5316;49.538;8.352;2023-03-01T10:36:38;19.27;;;14.50;;
10535;SDS011;5316;49.538;8.352;2023-03-01T10:39:11;20.13;;;14.60;;
10535;SDS011;5316;49.538;8.352;2023-03-01T10:41:59;20.13;;;14.30;;
10535;SDS011;5316;49.538;8.352;2023-03-01T10:49:31;18.50;;;14.50;;
10535;SDS011;5316;49.538;8.352;2023-03-01T10:52:11;18.07;;;14.90;;
10535;SDS011;5316;49.538;8.352;2023-03-01T10:54:57;19.90;;;14.30;;
10535;SDS011;5316;49.538;8.352;2023-03-01T10:57:32;17.00;;;13.70;;
10535;SDS011;5316;49.538;8.352;2023-03-01T11:00:20;16.90;;;13.83;;
10535;SDS011;5316;49.538;8.352;2023-03-01T11:03:02;18.03;;;14.53;;
10535;SDS011;5316;49.538;8.352;2023-03-01T11:05:53;19.97;;;15.60;;
10535;SDS011;5316;49.538;8.352;2023-03-01T11:08:29;19.00;;;14.00;;
10535;SDS011;5316;49.538;8.352;2023-03-01T11:11:22;20.13;;;14.70;;
10535;SDS011;5316;49.538;8.352;2023-03-01T11:13:59;15.83;;;13.37;;
10535;SDS011;5316;49.538;8.352;2023-03-01T11:16:31;16.00;;;14.07;;
10535;SDS011;5316;49.538;8.352;2023-03-01T11:19:16;18.00;;;13.67;;
10535;SDS011;5316;49.538;8.352;2023-03-01T11:21:56;17.33;;;14.00;;
10535;SDS011;5316;49.538;8.352;2023-03-01T11:24:29;17.73;;;14.07;;
10535;SDS011;5316;49.538;8.352;2023-03-01T11:27:15;18.93;;;14.40;;
10535;SDS011;5316;49.538;8.352;2023-03-01T11:29:51;19.73;;;14.63;;
10535;SDS011;5316;49.538;8.352;2023-03-01T11:32:23;17.50;;;14.00;;
10535;SDS011;5316;49.538;8.352;2023-03-01T11:35:02;16.03;;;14.10;;
10535;SDS011;5316;49.538;8.352;2023-03-01T11:37:38;17.10;;;13.93;;
10535;SDS011;5316;49.538;8.352;2023-03-01T11:40:13;19.20;;;14.63;;
10535;SDS011;5316;49.538;8.352;2023-03-01T11:45:54;18.30;;;13.97;;
10535;SDS011;5316;49.538;8.352;2023-03-01T11:48:38;18.53;;;14.83;;
10535;SDS011;5316;49.538;8.352;2023-03-01T11:51:15;18.27;;;14.03;;
10535;SDS011;5316;49.538;8.352;2023-03-01T11:53:59;22.67;;;17.23;;
10535;SDS011;5316;49.538;8.352;2023-03-01T11:56:40;18.77;;;14.13;;
10535;SDS011;5316;49.538;8.352;2023-03-01T11:59:18;16.07;;;14.37;;
10535;SDS011;5316;49.538;8.352;2023-03-01T12:01:59;19.67;;;15.03;;
10535;SDS011;5316;49.538;8.352;2023-03-01T12:07:34;18.47;;;13.87;;
10535;SDS011;5316;49.538;8.352;2023-03-01T12:10:19;18.97;;;13.67;;
10535;SDS011;5316;49.538;8.352;2023-03-01T12:12:53;17.87;;;13.83;;
10535;SDS011;5316;49.538;8.352;2023-03-01T12:15:41;19.83;;;13.90;;
10535;SDS011;5316;49.538;8.352;2023-03-01T12:18:22;16.80;;;13.90;;
10535;SDS011;5316;49.538;8.352;2023-03-01T12:21:00;15.73;;;14.03;;
10535;SDS011;5316;49.538;8.352;2023-03-01T12:26:37;14.30;;;12.20;;
10535;SDS011;5316;49.538;8.352;2023-03-01T12:29:12;16.17;;;12.80;;
10535;SDS011;5316;49.538;8.352;2023-03-01T13:13:25;14.10;;;12.17;;
10535;SDS011;5316;49.538;8.352;2023-03-01T13:14:57;13.40;;;11.10;;
10535;SDS011;5316;49.538;8.352;2023-03-01T13:17:52;13.07;;;11.67;;
10535;SDS011;5316;49.538;8.352;2023-03-01T13:41:05;15.77;;;12.10;;
10535;SDS011;5316;49.538;8.352;2023-03-01T13:43:32;13.40;;;12.00;;
10535;SDS011;5316;49.538;8.352;2023-03-01T13:46:01;12.67;;;11.37;;
10535;SDS011;5316;49.538;8.352;2023-03-01T13:48:34;12.57;;;10.97;;
10535;SDS011;5316;49.538;8.352;2023-03-01T13:51:02;12.63;;;11.27;;
10535;SDS011;5316;49.538;8.352;2023-03-01T13:53:31;12.47;;;10.93;;
10535;SDS011;5316;49.538;8.352;2023-03-01T13:56:03;13.20;;;11.53;;
10535;SDS011;5316;49.538;8.352;2023-03-01T13:58:43;11.50;;;10.30;;
10535;SDS011;5316;49.538;8.352;2023-03-01T14:01:20;12.03;;;10.73;;
10535;SDS011;5316;49.538;8.352;2023-03-01T14:03:49;13.20;;;10.50;;
10535;SDS011;5316;49.538;8.352;2023-03-01T14:06:16;11.47;;;9.50;;
10535;SDS011;5316;49.538;8.352;2023-03-01T14:08:46;10.80;;;9.70;;
10535;SDS011;5316;49.538;8.352;2023-03-01T14:14:25;10.40;;;9.30;;
10535;SDS011;5316;49.538;8.352;2023-03-01T14:17:06;10.77;;;9.17;;
10535;SDS011;5316;49.538;8.352;2023-03-01T14:19:46;9.80;;;8.80;;
10535;SDS011;5316;49.538;8.352;2023-03-01T14:22:21;10.97;;;9.60;;
10535;SDS011;5316;49.538;8.352;2023-03-01T14:25:16;11.93;;;9.60;;
10535;SDS011;5316;49.538;8.352;2023-03-01T14:27:54;12.60;;;9.60;;
10535;SDS011;5316;49.538;8.352;2023-03-01T14:30:24;9.80;;;8.83;;
10535;SDS011;5316;49.538;8.352;2023-03-01T14:32:57;9.70;;;8.20;;
10535;SDS011;5316;49.538;8.352;2023-03-01T14:35:26;8.43;;;7.53;;
10535;SDS011;5316;49.538;8.352;2023-03-01T14:37:55;10.53;;;7.80;;
10535;SDS011;5316;49.538;8.352;2023-03-01T14:40:24;9.73;;;7.87;;
10535;SDS011;5316;49.538;8.352;2023-03-01T14:42:54;10.03;;;7.67;;
10535;SDS011;5316;49.538;8.352;2023-03-01T14:45:24;10.80;;;8.33;;
10535;SDS011;5316;49.538;8.352;2023-03-01T14:47:53;8.83;;;7.33;;
10535;SDS011;5316;49.538;8.352;2023-03-01T14:50:24;9.17;;;6.83;;
10535;SDS011;5316;49.538;8.352;2023-03-01T14:52:54;9.07;;;7.00;;
10535;SDS011;5316;49.538;8.352;2023-03-01T14:55:25;8.73;;;6.57;;
10535;SDS011;5316;49.538;8.352;2023-03-01T14:57:57;8.20;;;7.00;;
10535;SDS011;5316;49.538;8.352;2023-03-01T15:00:25;9.10;;;7.10;;
10535;SDS011;5316;49.538;8.352;2023-03-01T15:02:54;7.90;;;7.10;;
10535;SDS011;5316;49.538;8.352;2023-03-01T15:05:25;7.73;;;6.77;;
10535;SDS011;5316;49.538;8.352;2023-03-01T15:07:54;8.33;;;6.50;;
10535;SDS011;5316;49.538;8.352;2023-03-01T15:10:23;8.23;;;7.40;;
10535;SDS011;5316;49.538;8.352;2023-03-01T15:12:53;7.93;;;7.13;;
10535;SDS011;5316;49.538;8.352;2023-03-01T15:18:17;9.07;;;7.97;;
10535;SDS011;5316;49.538;8.352;2023-03-01T15:20:47;9.80;;;7.43;;
10535;SDS011;5316;49.538;8.352;2023-03-01T15:23:21;8.77;;;7.17;;
10535;SDS011;5316;49.538;8.352;2023-03-01T15:25:50;9.53;;;7.53;;
10535;SDS011;5316;49.538;8.352;2023-03-01T15:28:22;6.43;;;5.83;;
10535;SDS011;5316;49.538;8.352;2023-03-01T15:30:57;7.63;;;6.53;;
10535;SDS011;5316;49.538;8.352;2023-03-01T15:33:35;7.23;;;5.63;;
10535;SDS011;5316;49.538;8.352;2023-03-01T15:36:31;7.27;;;6.57;;
10535;SDS011;5316;49.538;8.352;2023-03-01T15:39:05;8.00;;;6.17;;
10535;SDS011;5316;49.538;8.352;2023-03-01T15:41:52;7.03;;;6.30;;
10535;SDS011;5316;49.538;8.352;2023-03-01T15:44:25;7.37;;;5.60;;
10535;SDS011;5316;49.538;8.352;2023-03-01T15:46:54;6.13;;;5.53;;
10535;SDS011;5316;49.538;8.352;2023-03-01T15:49:25;7.57;;;6.23;;
10535;SDS011;5316;49.538;8.352;2023-03-01T15:52:02;7.70;;;6.90;;
10535;SDS011;5316;49.538;8.352;2023-03-01T15:54:29;7.77;;;6.83;;
10535;SDS011;5316;49.538;8.352;2023-03-01T15:56:57;7.23;;;6.57;;
10535;SDS011;5316;49.538;8.352;2023-03-01T15:59:24;7.63;;;6.83;;
10535;SDS011;5316;49.538;8.352;2023-03-01T16:01:52;8.23;;;6.53;;
10535;SDS011;5316;49.538;8.352;2023-03-01T16:04:21;7.83;;;7.03;;
10535;SDS011;5316;49.538;8.352;2023-03-01T16:06:48;9.27;;;7.00;;
10535;SDS011;5316;49.538;8.352;2023-03-01T16:09:19;7.40;;;6.60;;
10535;SDS011;5316;49.538;8.352;2023-03-01T16:11:48;7.20;;;6.50;;
10535;SDS011;5316;49.538;8.352;2023-03-01T16:14:15;8.33;;;7.53;;
10535;SDS011;5316;49.538;8.352;2023-03-01T16:16:42;9.47;;;7.10;;
10535;SDS011;5316;49.538;8.352;2023-03-01T16:19:11;10.13;;;7.40;;
10535;SDS011;5316;49.538;8.352;2023-03-01T16:21:39;8.67;;;7.37;;
10535;SDS011;5316;49.538;8.352;2023-03-01T16:24:08;8.07;;;7.27;;
10535;SDS011;5316;49.538;8.352;2023-03-01T16:26:36;9.13;;;6.67;;
10535;SDS011;5316;49.538;8.352;2023-03-01T16:29:04;10.77;;;7.60;;
10535;SDS011;5316;49.538;8.352;2023-03-01T16:31:41;8.47;;;6.97;;
10535;SDS011;5316;49.538;8.352;2023-03-01T16:34:08;9.57;;;8.43;;
10535;SDS011;5316;49.538;8.352;2023-03-01T16:36:37;13.77;;;8.93;;
10535;SDS011;5316;49.538;8.352;2023-03-01T16:39:04;9.33;;;8.03;;
10535;SDS011;5316;49.538;8.352;2023-03-01T16:41:34;9.23;;;7.33;;
10535;SDS011;5316;49.538;8.352;2023-03-01T16:44:01;9.83;;;8.27;;
10535;SDS011;5316;49.538;8.352;2023-03-01T16:46:28;11.20;;;7.57;;
10535;SDS011;5316;49.538;8.352;2023-03-01T16:48:56;10.10;;;7.47;;
10535;SDS011;5316;49.538;8.352;2023-03-01T16:51:23;11.23;;;7.83;;
10535;SDS011;5316;49.538;8.352;2023-03-01T16:53:52;9.13;;;7.77;;
10535;SDS011;5316;49.538;8.352;2023-03-01T16:56:19;10.93;;;7.87;;
10535;SDS011;5316;49.538;8.352;2023-03-01T16:58:46;12.47;;;7.67;;
10535;SDS011;5316;49.538;8.352;2023-03-01T17:01:13;11.70;;;8.03;;
10535;SDS011;5316;49.538;8.352;2023-03-01T17:03:42;11.30;;;8.23;;
10535;SDS011;5316;49.538;8.352;2023-03-01T17:06:12;11.70;;;9.03;;
10535;SDS011;5316;49.538;8.352;2023-03-01T17:08:40;9.13;;;8.23;;
10535;SDS011;5316;49.538;8.352;2023-03-01T17:11:09;10.30;;;7.50;;
10535;SDS011;5316;49.538;8.352;2023-03-01T17:13:37;10.00;;;7.80;;
10535;SDS011;5316;49.538;8.352;2023-03-01T17:16:06;9.20;;;8.20;;
10535;SDS011;5316;49.538;8.352;2023-03-01T17:18:34;9.47;;;7.40;;
10535;SDS011;5316;49.538;8.352;2023-03-01T17:21:02;10.33;;;8.53;;
10535;SDS011;5316;49.538;8.352;2023-03-01T17:23:30;9.33;;;7.77;;
10535;SDS011;5316;49.538;8.352;2023-03-01T17:25:57;11.13;;;8.13;;
10535;SDS011;5316;49.538;8.352;2023-03-01T17:28:28;8.60;;;7.80;;
10535;SDS011;5316;49.538;8.352;2023-03-01T17:30:56;12.20;;;8.40;;
10535;SDS011;5316;49.538;8.352;2023-03-01T17:33:24;9.57;;;7.73;;
10535;SDS011;5316;49.538;8.352;2023-03-01T17:35:52;11.87;;;9.10;;
10535;SDS011;5316;49.538;8.352;2023-03-01T17:38:18;10.83;;;8.00;;
10535;SDS011;5316;49.538;8.352;2023-03-01T17:40:45;11.13;;;8.20;;
10535;SDS011;5316;49.538;8.352;2023-03-01T17:43:12;10.17;;;8.40;;
10535;SDS011;5316;49.538;8.352;2023-03-01T17:45:41;10.23;;;7.90;;
10535;SDS011;5316;49.538;8.352;2023-03-01T17:48:13;8.20;;;7.40;;
10535;SDS011;5316;49.538;8.352;2023-03-01T17:50:41;13.70;;;8.60;;
10535;SDS011;5316;49.538;8.352;2023-03-01T17:53:08;9.90;;;8.00;;
10535;SDS011;5316;49.538;8.352;2023-03-01T17:55:35;11.07;;;8.13;;
10535;SDS011;5316;49.538;8.352;2023-03-01T17:58:03;11.13;;;8.13;;
10535;SDS011;5316;49.538;8.352;2023-03-01T18:00:30;10.13;;;8.07;;
10535;SDS011;5316;49.538;8.352;2023-03-01T18:02:59;10.97;;;8.70;;
10535;SDS011;5316;49.538;8.352;2023-03-01T18:05:30;9.93;;;7.93;;
10535;SDS011;5316;49.538;8.352;2023-03-01T18:07:57;10.57;;;8.33;;
10535;SDS011;5316;49.538;8.352;2023-03-01T18:10:24;10.37;;;8.20;;
10535;SDS011;5316;49.538;8.352;2023-03-01T18:12:51;13.47;;;8.63;;
10535;SDS011;5316;49.538;8.352;2023-03-01T18:15:18;13.03;;;9.00;;
10535;SDS011;5316;49.538;8.352;2023-03-01T18:17:44;12.60;;;8.67;;
10535;SDS011;5316;49.538;8.352;2023-03-01T18:20:12;12.43;;;8.73;;
10535;SDS011;5316;49.538;8.352;2023-03-01T18:22:40;10.90;;;8.50;;
10535;SDS011;5316;49.538;8.352;2023-03-01T18:25:07;12.13;;;9.17;;
10535;SDS011;5316;49.538;8.352;2023-03-01T18:27:34;14.53;;;9.20;;
10535;SDS011;5316;49.538;8.352;2023-03-01T18:30:02;12.90;;;9.17;;
10535;SDS011;5316;49.538;8.352;2023-03-01T18:32:29;10.40;;;9.33;;
10535;SDS011;5316;49.538;8.352;2023-03-01T18:34:56;14.83;;;9.80;;
10535;SDS011;5316;49.538;8.352;2023-03-01T18:37:24;11.83;;;9.53;;
10535;SDS011;5316;49.538;8.352;2023-03-01T18:39:51;12.40;;;9.40;;
10535;SDS011;5316;49.538;8.352;2023-03-01T18:42:19;12.80;;;9.70;;
10535;SDS011;5316;49.538;8.352;2023-03-01T18:44:46;13.20;;;9.93;;
10535;SDS011;5316;49.538;8.352;2023-03-01T18:47:13;13.43;;;9.80;;
10535;SDS011;5316;49.538;8.352;2023-03-01T18:49:40;13.37;;;10.07;;
10535;SDS011;5316;49.538;8.352;2023-03-01T18:52:07;11.37;;;9.53;;
10535;SDS011;5316;49.538;8.352;2023-03-01T18:54:35;13.73;;;9.13;;
10535;SDS011;5316;49.538;8.352;2023-03-01T18:57:02;17.47;;;12.83;;
10535;SDS011;5316;49.538;8.352;2023-03-01T18:59:29;16.57;;;11.27;;
10535;SDS011;5316;49.538;8.352;2023-03-01T19:01:56;14.23;;;11.10;;
10535;SDS011;5316;49.538;8.352;2023-03-01T19:04:23;13.50;;;10.60;;
10535;SDS011;5316;49.538;8.352;2023-03-01T19:06:51;17.40;;;12.13;;
10535;SDS011;5316;49.538;8.352;2023-03-01T19:09:19;22.13;;;16.93;;
10535;SDS011;5316;49.538;8.352;2023-03-01T19:11:48;17.13;;;11.23;;
10535;SDS011;5316;49.538;8.352;2023-03-01T19:14:17;13.63;;;10.67;;
10535;SDS011;5316;49.538;8.352;2023-03-01T19:16:46;13.73;;;10.40;;
10535;SDS011;5316;49.538;8.352;2023-03-01T19:19:13;17.00;;;10.97;;
10535;SDS011;5316;49.538;8.352;2023-03-01T19:21:41;13.37;;;10.63;;
10535;SDS011;5316;49.538;8.352;2023-03-01T19:24:09;13.27;;;10.73;;
10535;SDS011;5316;49.538;8.352;2023-03-01T19:36:32;13.50;;;10.90;;
10535;SDS011;5316;49.538;8.352;2023-03-01T19:38:59;15.07;;;11.40;;
10535;SDS011;5316;49.538;8.352;2023-03-01T19:41:29;15.10;;;11.43;;
10535;SDS011;5316;49.538;8.352;2023-03-01T20:00:38;14.47;;;10.97;;
10535;SDS011;5316;49.538;8.352;2023-03-01T20:03:21;11.60;;;10.30;;
10535;SDS011;5316;49.538;8.352;2023-03-01T20:05:50;15.00;;;11.03;;
10535;SDS011;5316;49.538;8.352;2023-03-01T20:08:24;13.93;;;11.37;;
